createdAt,value
2018-08-11T00:00:44.599Z,67.90
2018-08-11T00:03:13.908Z,68.00
2018-08-11T00:05:43.258Z,68.10
2018-08-11T00:08:12.625Z,68.40
2018-08-11T00:10:42.060Z,68.50
2018-08-11T00:13:11.284Z,68.60
2018-08-11T00:15:40.731Z,68.70
2018-08-11T00:18:09.999Z,68.90
2018-08-11T00:20:39.359Z,68.90
2018-08-11T00:23:08.639Z,69.10
2018-08-11T00:25:38.399Z,69.40
2018-08-11T00:28:07.632Z,69.60
2018-08-11T00:30:36.808Z,69.90
2018-08-11T00:33:06.107Z,70.10
2018-08-11T00:35:35.391Z,70.40
2018-08-11T00:38:04.808Z,70.40
2018-08-11T00:40:34.123Z,70.50
2018-08-11T00:43:03.651Z,70.70
2018-08-11T00:45:32.904Z,70.90
2018-08-11T00:48:02.318Z,71.20
2018-08-11T00:50:36.005Z,71.50
2018-08-11T00:53:06.419Z,71.70
2018-08-11T00:55:35.679Z,71.90
2018-08-11T00:58:04.966Z,71.90
2018-08-11T01:00:34.604Z,72.20
2018-08-11T01:03:03.852Z,72.40
2018-08-11T01:05:33.124Z,72.50
2018-08-11T01:08:02.354Z,72.50
2018-08-11T01:10:31.759Z,72.90
2018-08-11T01:13:01.070Z,73.10
2018-08-11T01:15:30.408Z,73.30
2018-08-11T01:17:59.628Z,73.20
2018-08-11T01:20:28.992Z,73.50
2018-08-11T01:22:58.228Z,73.60
2018-08-11T01:25:27.543Z,73.50
2018-08-11T01:27:56.754Z,73.50
2018-08-11T01:30:26.107Z,73.60
2018-08-11T01:32:55.331Z,74.00
2018-08-11T01:35:24.661Z,74.20
2018-08-11T01:37:53.971Z,74.30
2018-08-11T01:40:23.156Z,74.50
2018-08-11T01:42:52.407Z,74.20
2018-08-11T01:45:21.692Z,74.60
2018-08-11T01:47:50.975Z,74.80
2018-08-11T01:50:20.331Z,75.90
2018-08-11T01:52:49.544Z,75.20
2018-08-11T01:55:19.547Z,75.30
2018-08-11T01:57:48.934Z,75.40
2018-08-11T02:00:18.680Z,75.60
2018-08-11T02:02:47.950Z,75.90
2018-08-11T02:05:17.476Z,76.00
2018-08-11T02:07:47.755Z,76.20
2018-08-11T02:10:19.910Z,76.20
2018-08-11T02:12:49.472Z,76.30
2018-08-11T02:15:18.862Z,76.50
2018-08-11T02:17:48.159Z,76.80
2018-08-11T02:20:18.701Z,76.90
2018-08-11T02:22:48.973Z,77.00
2018-08-11T02:25:18.265Z,77.20
2018-08-11T02:27:47.579Z,77.20
2018-08-11T02:30:18.101Z,77.40
2018-08-11T02:32:47.535Z,77.70
2018-08-11T02:35:16.861Z,78.00
2018-08-11T02:37:46.123Z,78.40
2018-08-11T02:40:16.483Z,78.40
2018-08-11T02:42:45.812Z,78.70
2018-08-11T02:45:16.548Z,79.50
2018-08-11T02:47:46.631Z,78.90
2018-08-11T02:50:15.922Z,79.00
2018-08-11T02:52:45.525Z,78.70
2018-08-11T02:55:14.833Z,78.80
2018-08-11T02:57:44.150Z,78.70
2018-08-11T03:00:13.583Z,78.70
2018-08-11T03:02:42.819Z,78.80
2018-08-11T03:05:12.149Z,79.00
2018-08-11T03:07:41.399Z,79.00
2018-08-11T03:10:11.835Z,79.20
2018-08-11T03:12:41.758Z,79.10
2018-08-11T03:15:12.300Z,79.10
2018-08-11T03:17:42.075Z,79.00
2018-08-11T03:20:13.262Z,79.30
2018-08-11T03:22:42.707Z,79.30
2018-08-11T03:25:12.443Z,79.40
2018-08-11T03:27:41.760Z,79.40
2018-08-11T03:30:11.008Z,79.70
2018-08-11T03:32:40.281Z,80.20
2018-08-11T03:35:09.544Z,80.70
2018-08-11T03:37:45.358Z,80.90
2018-08-11T03:40:14.592Z,81.00
2018-08-11T03:42:43.874Z,81.20
2018-08-11T03:45:13.362Z,81.30
2018-08-11T03:47:42.696Z,81.50
2018-08-11T03:50:11.913Z,81.40
2018-08-11T03:52:41.139Z,81.40
2018-08-11T03:55:10.563Z,81.40
2018-08-11T03:57:39.847Z,81.40
2018-08-11T04:00:10.664Z,81.40
2018-08-11T04:02:39.965Z,81.50
2018-08-11T04:05:09.529Z,81.60
2018-08-11T04:07:38.790Z,81.70
2018-08-11T04:10:08.107Z,81.90
2018-08-11T04:12:37.297Z,82.00
2018-08-11T04:15:06.586Z,82.20
2018-08-11T04:17:39.440Z,82.30
2018-08-11T04:20:10.900Z,82.30
2018-08-11T04:22:40.224Z,82.40
2018-08-11T04:25:09.946Z,82.40
2018-08-11T04:27:39.287Z,82.30
2018-08-11T04:30:10.372Z,82.40
2018-08-11T04:32:39.650Z,82.30
2018-08-11T04:35:09.235Z,82.40
2018-08-11T04:37:38.441Z,82.40
2018-08-11T04:40:07.789Z,82.30
2018-08-11T04:42:36.949Z,82.40
2018-08-11T04:45:07.040Z,82.20
2018-08-11T04:47:36.300Z,82.20
2018-08-11T04:50:05.829Z,82.20
2018-08-11T04:52:35.134Z,82.30
2018-08-11T04:55:04.947Z,82.40
2018-08-11T04:57:34.303Z,82.40
2018-08-11T05:00:03.654Z,82.40
2018-08-11T05:02:32.967Z,82.30
2018-08-11T05:05:02.263Z,82.30
2018-08-11T05:07:31.534Z,82.40
2018-08-11T05:10:00.815Z,82.30
2018-08-11T05:12:30.072Z,82.40
2018-08-11T05:14:59.573Z,82.30
2018-08-11T05:17:28.934Z,82.30
2018-08-11T05:19:58.297Z,82.30
2018-08-11T05:22:27.479Z,82.90
2018-08-11T05:24:59.775Z,82.90
2018-08-11T05:27:29.014Z,81.90
2018-08-11T05:29:58.272Z,81.80
2018-08-11T05:32:27.493Z,81.60
2018-08-11T05:34:56.795Z,81.40
2018-08-11T05:37:25.995Z,81.20
2018-08-11T05:39:55.270Z,80.90
2018-08-11T05:42:24.508Z,80.60
2018-08-11T05:44:53.768Z,80.20
2018-08-11T05:47:23.088Z,79.60
2018-08-11T05:49:52.366Z,79.30
2018-08-11T05:52:21.904Z,78.90
2018-08-11T05:54:51.181Z,79.00
2018-08-11T05:57:20.408Z,77.60
2018-08-11T05:59:49.702Z,76.90
2018-08-11T06:02:19.029Z,76.40
2018-08-11T06:04:48.274Z,75.90
2018-08-11T06:07:17.659Z,74.70
2018-08-11T06:09:46.967Z,75.00
2018-08-11T06:12:16.191Z,74.20
2018-08-11T06:14:45.455Z,74.00
2018-08-11T06:17:14.712Z,73.30
2018-08-11T06:19:43.933Z,72.50
2018-08-11T06:22:13.242Z,71.90
2018-08-11T06:24:42.533Z,71.30
2018-08-11T06:27:11.894Z,70.60
2018-08-11T06:29:41.247Z,69.70
2018-08-11T06:32:10.577Z,68.90
2018-08-11T06:34:39.831Z,67.90
2018-08-11T06:37:10.290Z,66.70
2018-08-11T06:39:39.598Z,65.40
2018-08-11T06:42:08.859Z,63.70
2018-08-11T06:44:38.153Z,63.70
2018-08-11T06:47:07.476Z,62.60
2018-08-11T06:49:36.816Z,61.40
2018-08-11T06:52:06.347Z,60.30
2018-08-11T06:54:35.611Z,60.00
2018-08-11T06:57:04.975Z,58.80
2018-08-11T06:59:34.262Z,57.90
2018-08-11T07:02:03.658Z,57.30
2018-08-11T07:04:32.948Z,56.40
2018-08-11T07:07:02.353Z,55.70
2018-08-11T07:09:31.595Z,55.30
2018-08-11T07:12:00.966Z,55.00
2018-08-11T07:14:30.219Z,54.70
2018-08-11T07:16:59.554Z,54.40
2018-08-11T07:19:28.992Z,54.10
2018-08-11T07:21:58.300Z,53.60
2018-08-11T07:24:27.606Z,52.80
2018-08-11T07:26:56.899Z,52.00
2018-08-11T07:29:26.073Z,51.50
2018-08-11T07:31:55.403Z,51.00
2018-08-11T07:34:24.659Z,50.40
2018-08-11T07:36:54.023Z,49.80
2018-08-11T07:39:23.378Z,49.50
2018-08-11T07:41:52.695Z,49.00
2018-08-11T07:44:22.301Z,48.50
2018-08-11T07:46:51.635Z,48.20
2018-08-11T07:49:21.172Z,48.00
2018-08-11T07:51:50.431Z,48.40
2018-08-11T07:54:19.760Z,47.40
2018-08-11T07:56:49.071Z,46.80
2018-08-11T07:59:19.024Z,46.90
2018-08-11T08:01:48.234Z,46.80
2018-08-11T08:10:16.975Z,46.60
2018-08-11T08:12:46.247Z,46.50
2018-08-11T08:15:15.448Z,46.30
2018-08-11T08:17:44.643Z,46.10
2018-08-11T08:20:13.887Z,46.10
2018-08-11T08:22:43.131Z,46.50
2018-08-11T08:25:12.428Z,45.60
2018-08-11T08:27:41.756Z,45.20
2018-08-11T08:30:12.254Z,45.00
2018-08-11T08:32:41.542Z,44.60
2018-08-11T08:35:11.192Z,44.10
2018-08-11T08:37:40.483Z,43.80
2018-08-11T08:40:09.796Z,43.50
2018-08-11T08:42:39.117Z,43.70
2018-08-11T08:45:10.175Z,43.50
2018-08-11T08:47:39.478Z,42.50
2018-08-11T08:50:08.820Z,42.30
2018-08-11T08:52:38.067Z,42.00
2018-08-11T08:55:07.335Z,41.50
2018-08-11T08:57:36.599Z,41.50
2018-08-11T09:00:06.506Z,41.60
2018-08-11T09:02:35.922Z,41.50
2018-08-11T09:05:05.313Z,41.50
2018-08-11T09:07:34.623Z,41.30
2018-08-11T09:10:05.405Z,41.10
2018-08-11T09:12:34.672Z,40.60
2018-08-11T09:15:03.969Z,40.20
2018-08-11T09:17:33.362Z,39.50
2018-08-11T09:20:02.635Z,39.70
2018-08-11T09:22:31.934Z,38.90
2018-08-11T09:25:01.168Z,39.00
2018-08-11T09:27:30.411Z,38.20
2018-08-11T09:29:59.636Z,38.30
2018-08-11T09:32:28.935Z,38.60
2018-08-11T09:34:58.187Z,38.60
2018-08-11T09:37:27.463Z,38.80
2018-08-11T09:39:56.735Z,38.80
2018-08-11T09:42:26.007Z,38.70
2018-08-11T09:44:55.245Z,38.70
2018-08-11T09:47:25.976Z,38.90
2018-08-11T09:49:55.263Z,38.90
2018-08-11T09:52:24.711Z,39.00
2018-08-11T09:54:53.927Z,38.70
2018-08-11T09:57:23.727Z,38.60
2018-08-11T09:59:53.191Z,38.50
2018-08-11T10:02:23.160Z,38.60
2018-08-11T10:04:52.463Z,38.40
2018-08-11T10:07:21.736Z,38.50
2018-08-11T10:09:51.013Z,38.70
2018-08-11T10:12:20.735Z,38.90
2018-08-11T10:14:50.054Z,39.00
2018-08-11T10:17:19.319Z,38.70
2018-08-11T10:19:48.631Z,38.50
2018-08-11T10:22:17.915Z,38.30
2018-08-11T10:24:47.211Z,38.40
2018-08-11T10:27:16.539Z,38.50
2018-08-11T10:29:45.809Z,38.70
2018-08-11T10:32:15.108Z,38.80
2018-08-11T10:34:44.447Z,38.80
2018-08-11T10:37:13.687Z,39.00
2018-08-11T10:39:42.973Z,39.20
2018-08-11T10:42:12.265Z,39.20
2018-08-11T10:44:41.596Z,39.90
2018-08-11T10:47:11.036Z,39.40
2018-08-11T10:49:40.527Z,39.80
2018-08-11T10:52:09.814Z,39.80
2018-08-11T10:54:39.263Z,39.90
2018-08-11T10:57:08.547Z,40.00
2018-08-11T10:59:37.989Z,40.00
2018-08-11T11:02:07.368Z,40.10
2018-08-11T11:04:36.812Z,39.80
2018-08-11T11:07:06.281Z,39.40
2018-08-11T11:09:35.552Z,39.10
2018-08-11T11:12:04.812Z,39.20
2018-08-11T11:14:34.156Z,39.40
2018-08-11T11:17:03.414Z,39.20
2018-08-11T11:19:32.690Z,39.10
2018-08-11T11:22:01.921Z,39.20
2018-08-11T11:24:31.395Z,39.30
2018-08-11T11:27:00.596Z,39.30
2018-08-11T11:29:29.879Z,39.10
2018-08-11T11:31:59.153Z,39.00
2018-08-11T11:34:28.455Z,38.60
2018-08-11T11:36:58.070Z,39.20
2018-08-11T11:39:27.302Z,39.20
2018-08-11T11:41:56.581Z,39.20
2018-08-11T11:44:25.855Z,39.30
2018-08-11T11:46:55.191Z,39.20
2018-08-11T11:49:24.590Z,38.90
2018-08-11T11:51:53.852Z,38.40
2018-08-11T11:54:23.146Z,38.40
2018-08-11T11:56:52.346Z,37.30
2018-08-11T11:59:21.583Z,36.80
2018-08-11T12:01:50.883Z,36.50
2018-08-11T12:04:20.335Z,36.50
2018-08-11T12:06:49.757Z,36.80
2018-08-11T12:09:19.048Z,36.80
2018-08-11T12:11:48.251Z,36.50
2018-08-11T12:14:17.591Z,36.40
2018-08-11T12:16:46.847Z,36.80
2018-08-11T12:19:16.131Z,36.90
2018-08-11T12:21:45.380Z,36.90
2018-08-11T12:24:14.847Z,36.70
2018-08-11T12:26:44.098Z,35.90
2018-08-11T12:29:18.727Z,35.10
2018-08-11T12:31:47.961Z,34.60
2018-08-11T12:34:17.238Z,33.80
2018-08-11T12:36:46.546Z,34.60
2018-08-11T12:39:15.847Z,35.20
2018-08-11T12:41:45.043Z,35.80
2018-08-11T12:44:14.322Z,36.20
2018-08-11T12:46:43.611Z,36.40
2018-08-11T12:49:12.911Z,37.30
2018-08-11T12:51:42.191Z,36.70
2018-08-11T12:54:29.162Z,36.80
2018-08-11T12:56:58.548Z,36.90
2018-08-11T12:59:27.828Z,37.10
2018-08-11T13:01:57.011Z,37.30
2018-08-11T13:04:26.235Z,37.20
2018-08-11T13:06:55.572Z,37.00
2018-08-11T13:09:24.835Z,36.90
2018-08-11T13:11:54.524Z,36.70
2018-08-11T13:14:23.860Z,36.40
2018-08-11T13:16:53.128Z,36.30
2018-08-11T13:19:22.879Z,35.90
2018-08-11T13:21:52.179Z,35.50
2018-08-11T13:24:21.382Z,35.10
2018-08-11T13:26:50.562Z,34.30
2018-08-11T13:29:19.766Z,33.40
2018-08-11T13:31:49.056Z,32.60
2018-08-11T13:34:18.256Z,32.00
2018-08-11T13:36:47.902Z,31.90
2018-08-11T13:39:17.202Z,31.30
2018-08-11T13:41:48.523Z,31.10
2018-08-11T13:44:18.962Z,30.80
2018-08-11T13:46:48.335Z,30.70
2018-08-11T13:49:17.617Z,30.30
2018-08-11T13:51:46.891Z,29.70
2018-08-11T13:54:16.156Z,29.50
2018-08-11T13:56:45.375Z,29.50
2018-08-11T13:59:14.708Z,29.40
2018-08-11T14:01:43.963Z,29.20
2018-08-11T14:04:13.336Z,29.20
2018-08-11T14:06:42.635Z,28.90
2018-08-11T14:09:12.012Z,28.90
2018-08-11T14:11:41.330Z,28.60
2018-08-11T14:14:10.551Z,28.40
2018-08-11T14:16:39.876Z,28.40
2018-08-11T14:19:09.134Z,28.40
2018-08-11T14:21:40.619Z,28.90
2018-08-11T14:24:11.022Z,28.50
2018-08-11T14:26:40.351Z,28.50
2018-08-11T14:29:09.723Z,28.50
2018-08-11T14:31:39.467Z,28.40
2018-08-11T14:34:08.640Z,28.10
2018-08-11T14:36:38.228Z,28.50
2018-08-11T14:39:09.302Z,28.40
2018-08-11T14:41:39.341Z,28.80
2018-08-11T14:44:09.771Z,29.10
2018-08-11T14:46:39.034Z,29.40
2018-08-11T14:49:08.415Z,29.50
2018-08-11T14:51:37.681Z,29.90
2018-08-11T14:54:07.187Z,30.50
2018-08-11T14:56:36.838Z,31.10
2018-08-11T14:59:06.240Z,31.60
2018-08-11T15:01:35.680Z,31.90
2018-08-11T15:04:04.972Z,32.40
2018-08-11T15:06:34.263Z,32.70
2018-08-11T15:09:03.564Z,32.60
2018-08-11T15:11:32.836Z,32.60
2018-08-11T15:14:02.077Z,32.70
2018-08-11T15:16:31.359Z,32.40
2018-08-11T15:19:00.580Z,32.30
2018-08-11T15:21:29.835Z,32.30
2018-08-11T15:23:59.075Z,32.30
2018-08-11T15:26:28.699Z,32.20
2018-08-11T15:29:00.320Z,31.90
2018-08-11T15:31:29.675Z,31.90
2018-08-11T15:33:58.965Z,32.20
2018-08-11T15:36:28.172Z,32.50
2018-08-11T15:38:57.402Z,32.30
2018-08-11T15:41:26.655Z,33.10
2018-08-11T15:43:55.875Z,33.70
2018-08-11T15:46:25.139Z,33.80
2018-08-11T15:48:54.440Z,33.80
2018-08-11T15:51:23.746Z,33.80
2018-08-11T15:53:53.000Z,33.70
2018-08-11T15:56:22.289Z,33.50
2018-08-11T15:58:51.483Z,33.50
2018-08-11T16:01:20.771Z,33.50
2018-08-11T16:03:50.108Z,33.80
2018-08-11T16:06:19.703Z,34.10
2018-08-11T16:08:49.332Z,34.00
2018-08-11T16:11:18.579Z,34.20
2018-08-11T16:13:47.941Z,34.20
2018-08-11T16:16:17.193Z,34.20
2018-08-11T16:18:46.575Z,34.00
2018-08-11T16:21:15.824Z,33.80
2018-08-11T16:23:46.629Z,33.70
2018-08-11T16:26:15.899Z,34.10
2018-08-11T16:28:45.172Z,33.70
2018-08-11T16:31:14.441Z,33.90
2018-08-11T16:33:43.666Z,34.10
2018-08-11T16:36:12.943Z,34.10
2018-08-11T16:38:42.208Z,33.90
2018-08-11T16:41:14.299Z,33.60
2018-08-11T16:43:44.095Z,33.50
2018-08-11T16:49:19.643Z,34.10
2018-08-11T16:51:48.811Z,34.20
2018-08-11T16:54:18.125Z,34.80
2018-08-11T16:56:47.402Z,34.10
2018-08-11T16:59:16.758Z,34.10
2018-08-11T17:01:45.914Z,34.40
2018-08-11T17:04:15.215Z,34.70
2018-08-11T17:06:44.422Z,35.40
2018-08-11T17:09:13.818Z,35.80
2018-08-11T17:11:43.230Z,35.90
2018-08-11T17:14:12.668Z,35.80
2018-08-11T17:16:42.659Z,35.40
2018-08-11T17:19:12.198Z,35.20
2018-08-11T17:21:41.461Z,35.20
2018-08-11T17:24:10.755Z,35.30
2018-08-11T17:26:40.178Z,35.60
2018-08-11T17:29:09.724Z,36.00
2018-08-11T17:31:38.932Z,35.90
2018-08-11T17:34:08.234Z,36.10
2018-08-11T17:36:37.459Z,36.40
2018-08-11T17:39:09.393Z,36.90
2018-08-11T17:41:38.620Z,37.40
2018-08-11T17:44:10.173Z,37.90
2018-08-11T17:46:39.399Z,38.10
2018-08-11T17:49:08.978Z,38.40
2018-08-11T17:51:38.216Z,38.80
2018-08-11T17:54:07.771Z,39.00
2018-08-11T17:56:37.003Z,39.10
2018-08-11T17:59:06.303Z,39.20
2018-08-11T18:01:35.579Z,39.30
2018-08-11T18:04:04.864Z,39.40
2018-08-11T18:06:34.143Z,39.70
2018-08-11T18:09:04.154Z,39.70
2018-08-11T18:11:33.339Z,40.00
2018-08-11T18:14:03.302Z,40.00
2018-08-11T18:16:32.654Z,41.10
2018-08-11T18:19:01.928Z,40.60
2018-08-11T18:21:31.940Z,40.70
2018-08-11T18:24:01.231Z,41.00
2018-08-11T18:26:30.567Z,41.00
2018-08-11T18:29:00.009Z,41.70
2018-08-11T18:31:29.408Z,41.30
2018-08-11T18:36:55.552Z,42.10
2018-08-11T18:39:24.839Z,41.90
2018-08-11T18:41:54.114Z,42.00
2018-08-11T18:44:23.405Z,42.00
2018-08-11T18:46:53.006Z,42.30
2018-08-11T18:49:34.742Z,42.50
2018-08-11T18:52:04.122Z,42.60
2018-08-11T18:54:34.032Z,42.50
2018-08-11T18:57:03.614Z,42.50
2018-08-11T18:59:33.015Z,43.00
2018-08-11T19:02:02.324Z,43.20
2018-08-11T19:04:32.209Z,43.40
2018-08-11T19:07:01.524Z,43.70
2018-08-11T19:09:31.053Z,43.70
2018-08-11T19:12:00.365Z,43.80
2018-08-11T19:14:29.652Z,44.00
2018-08-11T19:16:58.936Z,44.20
2018-08-11T19:19:28.277Z,44.60
2018-08-11T19:21:57.583Z,45.00
2018-08-11T19:24:27.611Z,45.20
2018-08-11T19:26:56.983Z,45.30
2018-08-11T19:29:26.201Z,45.40
2018-08-11T19:31:55.574Z,45.80
2018-08-11T19:34:25.424Z,45.80
2018-08-11T19:36:54.791Z,46.00
2018-08-11T19:39:24.251Z,46.10
2018-08-11T19:41:53.981Z,45.90
2018-08-11T19:44:23.592Z,45.90
2018-08-11T19:46:53.004Z,45.90
2018-08-11T19:49:22.164Z,46.20
2018-08-11T19:51:53.280Z,46.50
2018-08-11T19:54:22.578Z,46.40
2018-08-11T19:56:51.935Z,47.00
2018-08-11T19:59:21.223Z,46.90
2018-08-11T20:01:51.575Z,47.10
2018-08-11T20:04:20.947Z,47.30
2018-08-11T20:06:50.249Z,47.40
2018-08-11T20:09:19.494Z,47.50
2018-08-11T20:11:48.835Z,47.60
2018-08-11T20:14:18.257Z,47.80
2018-08-11T20:16:47.755Z,48.90
2018-08-11T20:19:17.400Z,48.40
2018-08-11T20:21:46.600Z,48.60
2018-08-11T20:24:16.323Z,48.80
2018-08-11T20:26:45.819Z,49.10
2018-08-11T20:29:15.290Z,49.30
2018-08-11T20:31:44.474Z,49.30
2018-08-11T20:34:13.738Z,49.40
2018-08-11T20:36:43.020Z,49.40
2018-08-11T20:39:14.069Z,49.40
2018-08-11T20:41:43.698Z,49.30
2018-08-11T20:44:13.069Z,49.50
2018-08-11T20:46:42.374Z,49.70
2018-08-11T20:49:11.608Z,49.70
2018-08-11T20:51:40.891Z,49.90
2018-08-11T20:54:10.248Z,50.00
2018-08-11T20:56:39.515Z,50.20
2018-08-11T20:59:08.765Z,50.60
2018-08-11T21:01:38.107Z,50.80
2018-08-11T21:04:07.725Z,51.00
2018-08-11T21:06:37.276Z,51.10
2018-08-11T21:09:10.250Z,51.10
2018-08-11T21:11:39.743Z,51.80
2018-08-11T21:14:10.018Z,51.40
2018-08-11T21:16:39.366Z,51.70
2018-08-11T21:19:08.758Z,51.80
2018-08-11T21:21:38.199Z,51.90
2018-08-11T21:24:07.540Z,52.00
2018-08-11T21:26:36.815Z,52.30
2018-08-11T21:29:06.371Z,52.40
2018-08-11T21:31:35.691Z,52.30
2018-08-11T21:34:04.991Z,52.30
2018-08-11T21:36:34.312Z,52.50
2018-08-11T21:39:04.095Z,52.50
2018-08-11T21:41:33.428Z,53.30
2018-08-11T21:44:02.707Z,52.70
2018-08-11T21:46:31.951Z,52.80
2018-08-11T21:49:01.303Z,52.70
2018-08-11T21:51:30.668Z,52.70
2018-08-11T21:54:00.323Z,52.70
2018-08-11T21:56:29.706Z,52.80
2018-08-11T21:58:59.024Z,53.20
2018-08-11T22:01:28.383Z,52.80
2018-08-11T22:03:57.705Z,52.90
2018-08-11T22:06:27.062Z,53.20
2018-08-11T22:08:56.275Z,53.20
2018-08-11T22:11:25.656Z,53.50
2018-08-11T22:13:55.014Z,53.70
2018-08-11T22:16:24.313Z,53.60
2018-08-11T22:18:53.669Z,53.90
2018-08-11T22:21:22.905Z,53.90
2018-08-11T22:23:52.574Z,54.00
2018-08-11T22:26:21.802Z,54.10
2018-08-11T22:28:51.151Z,54.30
2018-08-11T22:37:28.688Z,54.70
2018-08-11T22:39:58.011Z,54.80
2018-08-11T22:42:27.303Z,55.00
2018-08-11T22:44:56.595Z,55.20
2018-08-11T22:47:26.008Z,55.40
2018-08-11T22:49:55.595Z,55.50
2018-08-11T22:52:24.855Z,55.50
2018-08-11T22:54:54.071Z,55.60
2018-08-11T22:57:23.334Z,55.90
2018-08-11T22:59:52.603Z,56.00
2018-08-11T23:02:21.890Z,56.20
2018-08-11T23:04:51.139Z,56.30
2018-08-11T23:07:20.382Z,56.40
2018-08-11T23:09:49.724Z,56.60
2018-08-11T23:12:19.024Z,56.60
2018-08-11T23:14:48.339Z,56.70
2018-08-11T23:17:17.608Z,56.90
2018-08-11T23:19:46.894Z,57.10
2018-08-11T23:22:16.324Z,57.20
2018-08-11T23:24:45.662Z,57.30
2018-08-11T23:27:14.946Z,57.50
2018-08-11T23:29:44.212Z,57.70
2018-08-11T23:32:13.623Z,57.80
2018-08-11T23:34:42.849Z,58.10
2018-08-11T23:37:12.187Z,58.10
2018-08-11T23:39:41.448Z,58.20
2018-08-11T23:42:10.746Z,58.30
2018-08-11T23:44:40.059Z,58.40
2018-08-11T23:47:09.560Z,58.40
2018-08-11T23:49:38.894Z,58.30
2018-08-11T23:52:08.179Z,58.60
2018-08-11T23:54:37.534Z,58.80
2018-08-11T23:57:07.257Z,58.50
2018-08-11T23:59:36.704Z,58.60
